Time;durP1;ratioP1;P1;durP2;ratioP2;P2;SDS_P1;SDS_P2;PMS_P1;PMS_P2;Temp;Humidity;BMP_temperature;BMP_pressure;BME280_temperature;BME280_humidity;BME280_pressure;Samples;Min_cycle;Max_cycle;Signal;HPM_P1;HPM_P2
2023/03/22 00:01:31;;;;;;;39.10;23.33;;;10.60;99.90;;;;;;5071967;28;20522;-67
2023/03/22 00:03:58;;;;;;;35.03;23.40;;;10.50;99.90;;;;;;5073533;28;20469;-66
2023/03/22 00:06:26;;;;;;;30.83;21.77;;;10.50;99.90;;;;;;5073338;28;20505;-67
2023/03/22 00:08:54;;;;;;;35.60;23.67;;;10.50;99.90;;;;;;5071803;28;20455;-65
2023/03/22 00:11:24;;;;;;;30.83;23.40;;;10.50;99.90;;;;;;5067690;28;20543;-67
2023/03/22 00:13:52;;;;;;;30.33;23.57;;;10.50;99.90;;;;;;5057524;28;20534;-68
2023/03/22 00:16:20;;;;;;;36.20;23.07;;;10.50;99.90;;;;;;5057682;28;20509;-68
2023/03/22 00:18:48;;;;;;;35.47;23.27;;;10.50;99.90;;;;;;5066471;28;20978;-68
2023/03/22 00:21:16;;;;;;;33.03;21.13;;;10.50;99.90;;;;;;5065914;28;20527;-67
2023/03/22 00:23:45;;;;;;;31.57;22.00;;;10.60;99.90;;;;;;5064157;28;20459;-68
2023/03/22 00:26:13;;;;;;;31.53;21.50;;;10.50;99.90;;;;;;5065429;28;20479;-67
2023/03/22 00:28:41;;;;;;;32.37;21.03;;;10.50;99.90;;;;;;5062876;28;20550;-67
2023/03/22 00:31:08;;;;;;;31.37;21.80;;;10.50;99.90;;;;;;5065778;28;20820;-69
2023/03/22 00:33:36;;;;;;;30.03;20.80;;;10.50;99.90;;;;;;5061328;28;20497;-67
2023/03/22 00:36:05;;;;;;;27.43;19.97;;;10.50;99.90;;;;;;5063539;28;20526;-67
2023/03/22 00:38:35;;;;;;;26.37;20.27;;;10.50;99.90;;;;;;5065836;28;20479;-67
2023/03/22 00:41:12;;;;;;;31.63;21.90;;;10.50;99.90;;;;;;5062462;28;20457;-68
2023/03/22 00:43:40;;;;;;;30.07;21.80;;;10.50;99.90;;;;;;5065976;28;20530;-67
2023/03/22 00:46:07;;;;;;;32.60;20.30;;;10.40;99.90;;;;;;5065276;28;20538;-67
2023/03/22 00:48:34;;;;;;;120.03;71.90;;;10.40;99.90;;;;;;5054300;28;20495;-68
2023/03/22 00:51:01;;;;;;;34.50;24.80;;;10.40;99.90;;;;;;5054988;28;20465;-66
2023/03/22 00:53:28;;;;;;;38.13;23.63;;;10.40;99.90;;;;;;5054764;28;20784;-66
2023/03/22 00:55:56;;;;;;;31.73;21.63;;;10.40;99.90;;;;;;5054052;28;20447;-65
2023/03/22 00:58:24;;;;;;;29.97;21.37;;;10.50;99.90;;;;;;5053378;28;20799;-67
2023/03/22 01:00:51;;;;;;;29.30;22.13;;;10.40;99.90;;;;;;5054260;28;20466;-65
2023/03/22 01:03:20;;;;;;;30.00;21.10;;;10.50;99.90;;;;;;5053812;28;20551;-66
2023/03/22 01:05:49;;;;;;;28.00;20.57;;;10.50;99.90;;;;;;5055104;28;20486;-68
2023/03/22 01:08:16;;;;;;;28.00;21.73;;;10.50;99.90;;;;;;5054962;28;20459;-67
2023/03/22 01:10:44;;;;;;;29.33;21.70;;;10.40;99.90;;;;;;5057706;28;20482;-67
2023/03/22 01:13:12;;;;;;;32.57;21.57;;;10.40;99.90;;;;;;5058195;28;20451;-67
2023/03/22 01:15:41;;;;;;;28.63;20.37;;;10.30;99.90;;;;;;5057719;28;20493;-66
2023/03/22 01:18:08;;;;;;;29.43;21.43;;;10.30;99.90;;;;;;5057807;28;20455;-67
2023/03/22 01:20:35;;;;;;;29.13;20.60;;;10.20;99.90;;;;;;5057472;28;20486;-67
2023/03/22 01:23:02;;;;;;;31.70;21.20;;;10.10;99.90;;;;;;5057349;28;20458;-67
2023/03/22 01:25:30;;;;;;;30.87;21.03;;;10.10;99.90;;;;;;5058214;28;20465;-67
2023/03/22 01:27:56;;;;;;;33.60;22.33;;;10.10;99.90;;;;;;5057720;28;20483;-66
2023/03/22 01:30:23;;;;;;;32.57;22.57;;;10.10;99.90;;;;;;5057710;28;20465;-67
2023/03/22 01:32:51;;;;;;;35.80;22.20;;;10.10;99.90;;;;;;5057629;28;20455;-67
2023/03/22 01:35:18;;;;;;;37.17;21.90;;;10.20;99.90;;;;;;5057380;28;20459;-66
2023/03/22 01:37:45;;;;;;;30.10;22.70;;;10.20;99.90;;;;;;5057419;28;20455;-67
2023/03/22 01:40:14;;;;;;;31.13;22.30;;;10.20;99.90;;;;;;5057576;28;20493;-67
2023/03/22 01:42:42;;;;;;;31.27;21.83;;;10.20;99.90;;;;;;5057346;28;20459;-65
2023/03/22 01:45:34;;;;;;;29.77;22.37;;;10.20;99.90;;;;;;5057321;28;20473;-67
2023/03/22 01:48:09;;;;;;;32.00;21.70;;;10.30;99.90;;;;;;5056956;28;20463;-67
2023/03/22 01:50:38;;;;;;;32.73;21.70;;;10.20;99.90;;;;;;5057044;28;20453;-67
2023/03/22 01:53:07;;;;;;;37.20;22.73;;;10.20;99.90;;;;;;5056882;28;20769;-67
2023/03/22 01:55:35;;;;;;;32.40;21.37;;;10.20;99.90;;;;;;5056929;28;20467;-66
2023/03/22 01:58:03;;;;;;;34.83;21.93;;;10.10;99.90;;;;;;5056887;28;20451;-67
2023/03/22 02:00:30;;;;;;;31.17;22.17;;;10.10;99.90;;;;;;5056871;28;20944;-67
2023/03/22 02:02:57;;;;;;;28.43;21.40;;;10.10;99.90;;;;;;5057141;28;20454;-68
2023/03/22 02:05:26;;;;;;;32.00;22.70;;;10.10;99.90;;;;;;5056454;28;20499;-65
2023/03/22 02:07:53;;;;;;;31.83;23.10;;;10.10;99.90;;;;;;5056705;28;20562;-67
2023/03/22 02:10:24;;;;;;;32.63;22.40;;;10.10;99.90;;;;;;5056688;28;20466;-67
2023/03/22 02:13:07;;;;;;;33.13;20.23;;;10.00;99.90;;;;;;5056295;28;20522;-66
2023/03/22 02:15:38;;;;;;;31.63;22.40;;;10.10;99.90;;;;;;5056191;28;20533;-67
2023/03/22 02:18:19;;;;;;;28.23;21.43;;;10.10;99.90;;;;;;5056754;28;20454;-62
2023/03/22 02:21:34;;;;;;;31.23;22.37;;;10.10;99.90;;;;;;5056145;28;20893;-62
2023/03/22 02:24:31;;;;;;;38.50;23.97;;;10.10;99.90;;;;;;5056181;28;20445;-61
2023/03/22 02:27:22;;;;;;;36.30;22.10;;;10.10;99.90;;;;;;5056337;28;20471;-65
2023/03/22 02:29:56;;;;;;;28.93;20.90;;;10.10;99.90;;;;;;5056390;28;20453;-61
2023/03/22 02:32:52;;;;;;;31.00;21.20;;;10.10;99.90;;;;;;5057005;28;20454;-63
2023/03/22 02:35:33;;;;;;;33.03;20.00;;;10.10;99.90;;;;;;5056272;28;20447;-63
2023/03/22 02:38:27;;;;;;;31.33;21.50;;;10.00;99.90;;;;;;5056268;28;20435;-61
2023/03/22 02:41:02;;;;;;;28.17;20.30;;;10.00;99.90;;;;;;5055818;28;20444;-62
2023/03/22 02:43:37;;;;;;;25.10;18.83;;;9.90;99.90;;;;;;5055818;28;20963;-62
2023/03/22 02:46:08;;;;;;;30.07;21.83;;;9.90;99.90;;;;;;5055993;28;20486;-63
2023/03/22 02:48:42;;;;;;;31.83;21.70;;;9.90;99.90;;;;;;5055842;28;20482;-62
2023/03/22 02:51:15;;;;;;;30.07;19.97;;;9.90;99.90;;;;;;5055886;28;20442;-60
2023/03/22 02:53:46;;;;;;;26.10;19.60;;;9.90;99.90;;;;;;5055934;28;20444;-62
2023/03/22 02:56:21;;;;;;;31.77;19.27;;;9.80;99.90;;;;;;5056117;28;20626;-63
2023/03/22 02:58:52;;;;;;;28.17;19.80;;;9.90;99.90;;;;;;5056024;28;20439;-63
2023/03/22 03:01:23;;;;;;;30.53;21.00;;;9.90;99.90;;;;;;5055537;28;20454;-63
2023/03/22 03:03:54;;;;;;;26.37;19.63;;;9.90;99.90;;;;;;5055758;28;20443;-63
2023/03/22 03:06:24;;;;;;;26.87;20.13;;;9.90;99.90;;;;;;5055847;28;20455;-62
2023/03/22 03:08:53;;;;;;;27.87;20.37;;;9.90;99.90;;;;;;5055559;28;20459;-61
2023/03/22 03:11:21;;;;;;;25.77;19.00;;;9.80;99.90;;;;;;5055457;28;20463;-66
2023/03/22 03:13:48;;;;;;;30.17;20.83;;;9.80;99.90;;;;;;5055784;28;20853;-66
2023/03/22 03:16:18;;;;;;;25.37;19.33;;;9.70;99.90;;;;;;5055620;28;20483;-66
2023/03/22 03:18:51;;;;;;;31.03;19.57;;;9.70;99.90;;;;;;5055425;28;20490;-67
2023/03/22 03:21:35;;;;;;;26.77;19.40;;;9.70;99.90;;;;;;5055448;28;20846;-67
2023/03/22 03:24:17;;;;;;;26.13;19.50;;;9.70;99.90;;;;;;5055264;28;20884;-66
2023/03/22 03:26:54;;;;;;;28.97;20.30;;;9.60;99.90;;;;;;5054976;28;20464;-66
2023/03/22 03:29:26;;;;;;;29.20;20.50;;;9.60;99.90;;;;;;5055412;28;20471;-67
2023/03/22 03:32:01;;;;;;;26.00;18.70;;;9.60;99.90;;;;;;5054859;28;20779;-67
2023/03/22 03:34:33;;;;;;;29.90;20.30;;;9.60;99.90;;;;;;5055326;28;20516;-67
2023/03/22 03:37:07;;;;;;;27.90;19.77;;;9.60;99.90;;;;;;5055109;28;20435;-66
2023/03/22 03:39:37;;;;;;;28.50;18.37;;;9.50;99.90;;;;;;5055899;28;20454;-67
2023/03/22 03:42:11;;;;;;;26.20;17.80;;;9.50;99.90;;;;;;5054829;28;20450;-67
2023/03/22 03:44:39;;;;;;;24.10;17.57;;;9.50;99.90;;;;;;5054610;28;20482;-68
2023/03/22 03:47:07;;;;;;;23.30;17.80;;;9.50;99.90;;;;;;5055098;28;20490;-67
2023/03/22 03:49:35;;;;;;;27.23;18.20;;;9.60;99.90;;;;;;5054670;28;20548;-67
2023/03/22 03:52:04;;;;;;;23.07;16.50;;;9.60;99.90;;;;;;5054512;28;20455;-68
2023/03/22 03:54:32;;;;;;;25.40;18.30;;;9.60;99.90;;;;;;5054801;28;20470;-67
2023/03/22 03:57:00;;;;;;;23.90;17.90;;;9.60;99.90;;;;;;5054742;28;20784;-67
2023/03/22 03:59:28;;;;;;;26.60;17.87;;;9.60;99.90;;;;;;5054699;28;20459;-67
2023/03/22 04:01:55;;;;;;;26.13;17.40;;;9.60;99.90;;;;;;5054731;28;20459;-67
2023/03/22 04:04:25;;;;;;;22.80;16.83;;;9.60;99.90;;;;;;5054688;28;20467;-66
2023/03/22 04:06:55;;;;;;;27.17;18.27;;;9.60;99.90;;;;;;5054262;28;20463;-66
2023/03/22 04:09:22;;;;;;;26.13;17.30;;;9.50;99.90;;;;;;5054343;28;20634;-66
2023/03/22 04:11:50;;;;;;;25.70;17.50;;;9.50;99.90;;;;;;5054664;28;20465;-66
2023/03/22 04:14:17;;;;;;;24.53;17.50;;;9.50;99.90;;;;;;5055374;28;20528;-68
2023/03/22 04:16:45;;;;;;;22.43;17.10;;;9.50;99.90;;;;;;5054709;28;20892;-66
2023/03/22 04:19:13;;;;;;;21.53;16.57;;;9.60;99.90;;;;;;5055233;28;20477;-67
2023/03/22 04:21:40;;;;;;;23.60;15.90;;;9.60;99.90;;;;;;5054171;28;20455;-63
2023/03/22 04:24:08;;;;;;;25.20;16.77;;;9.60;99.90;;;;;;5054663;28;20537;-63
2023/03/22 04:26:35;;;;;;;19.90;16.00;;;9.60;99.90;;;;;;5054425;28;20852;-63
2023/03/22 04:29:02;;;;;;;20.67;15.63;;;9.70;99.90;;;;;;5054500;28;20867;-62
2023/03/22 04:31:29;;;;;;;22.60;15.37;;;9.70;99.90;;;;;;5054599;28;20463;-63
2023/03/22 04:33:59;;;;;;;26.73;16.30;;;9.70;99.90;;;;;;5054735;28;20947;-62
2023/03/22 04:36:29;;;;;;;21.90;15.90;;;9.70;99.90;;;;;;5054522;28;20470;-62
2023/03/22 04:38:56;;;;;;;22.73;16.53;;;9.70;99.90;;;;;;5054521;28;20776;-62
2023/03/22 04:41:23;;;;;;;19.73;15.57;;;9.60;99.90;;;;;;5054709;28;20847;-68
2023/03/22 04:43:51;;;;;;;23.63;16.10;;;9.60;99.90;;;;;;5054666;28;20554;-66
2023/03/22 04:46:20;;;;;;;26.20;17.10;;;9.60;99.90;;;;;;5058428;28;20461;-67
2023/03/22 04:48:46;;;;;;;21.10;16.93;;;9.70;99.90;;;;;;5058237;28;20544;-67
2023/03/22 04:51:15;;;;;;;22.70;16.77;;;9.70;99.90;;;;;;5058352;28;20542;-67
2023/03/22 04:53:41;;;;;;;19.40;16.03;;;9.60;99.90;;;;;;5059434;28;20534;-67
2023/03/22 04:56:10;;;;;;;22.60;15.63;;;9.60;99.90;;;;;;5058381;28;20458;-68
2023/03/22 04:58:39;;;;;;;18.77;15.17;;;9.50;99.90;;;;;;5058238;28;20546;-68
2023/03/22 05:01:07;;;;;;;22.63;16.33;;;9.60;99.90;;;;;;5058371;28;20454;-67
2023/03/22 05:03:35;;;;;;;21.63;15.33;;;9.50;99.90;;;;;;5058117;28;20542;-66
2023/03/22 05:06:05;;;;;;;21.27;15.97;;;9.50;99.90;;;;;;5057965;28;21053;-67
2023/03/22 05:08:34;;;;;;;19.57;15.87;;;9.50;99.90;;;;;;5058544;28;20501;-67
2023/03/22 05:11:06;;;;;;;22.43;16.57;;;9.50;99.90;;;;;;5058217;28;20852;-67
2023/03/22 05:13:35;;;;;;;20.20;15.83;;;9.50;99.90;;;;;;5058061;28;20858;-67
2023/03/22 05:16:02;;;;;;;20.03;15.20;;;9.50;99.90;;;;;;5057809;28;20509;-66
2023/03/22 05:18:29;;;;;;;19.80;15.50;;;9.50;99.90;;;;;;5057923;28;20520;-67
2023/03/22 05:20:57;;;;;;;22.03;16.37;;;9.60;99.90;;;;;;5057860;28;20459;-67
2023/03/22 05:23:24;;;;;;;21.57;15.63;;;9.60;99.90;;;;;;5057719;28;20470;-67
2023/03/22 05:25:53;;;;;;;22.77;16.30;;;9.60;99.90;;;;;;5057920;28;20466;-66
2023/03/22 05:28:21;;;;;;;22.60;16.03;;;9.60;99.90;;;;;;5057666;28;20482;-67
2023/03/22 05:30:48;;;;;;;21.77;15.90;;;9.60;99.90;;;;;;5057387;28;20455;-67
2023/03/22 05:33:15;;;;;;;23.63;16.20;;;9.50;99.90;;;;;;5057570;28;20541;-67
2023/03/22 05:35:43;;;;;;;19.10;15.50;;;9.50;99.90;;;;;;5057190;28;20524;-67
2023/03/22 05:38:10;;;;;;;21.50;15.67;;;9.50;99.90;;;;;;5057281;28;20831;-67
2023/03/22 05:40:37;;;;;;;20.93;15.53;;;9.50;99.90;;;;;;5056951;28;20473;-67
2023/03/22 05:43:05;;;;;;;19.23;15.60;;;9.60;99.90;;;;;;5057162;28;20469;-67
2023/03/22 05:45:32;;;;;;;18.83;13.73;;;9.60;99.90;;;;;;5057201;28;20486;-67
2023/03/22 05:47:59;;;;;;;21.33;15.50;;;9.60;99.90;;;;;;5056724;28;20479;-67
2023/03/22 05:50:26;;;;;;;20.60;14.60;;;9.60;99.90;;;;;;5056998;28;20535;-68
2023/03/22 05:52:53;;;;;;;18.60;14.83;;;9.60;99.90;;;;;;5056838;28;20469;-67
2023/03/22 05:55:21;;;;;;;18.97;13.50;;;9.60;99.90;;;;;;5056734;28;20787;-68
2023/03/22 05:57:52;;;;;;;21.10;14.03;;;9.60;99.90;;;;;;5057051;28;20451;-67
2023/03/22 06:00:22;;;;;;;21.17;13.87;;;9.60;99.90;;;;;;5056783;28;20447;-66
2023/03/22 06:02:51;;;;;;;21.30;14.47;;;9.60;99.90;;;;;;5056704;28;20455;-68
2023/03/22 06:05:19;;;;;;;23.27;14.47;;;9.60;99.90;;;;;;5056794;28;20456;-67
2023/03/22 06:07:46;;;;;;;21.73;14.57;;;9.60;99.90;;;;;;5056727;28;20540;-67
2023/03/22 06:10:15;;;;;;;19.37;13.67;;;9.70;99.90;;;;;;5056553;28;20547;-67
2023/03/22 06:12:42;;;;;;;17.83;14.77;;;9.70;99.90;;;;;;5056973;28;20459;-67
2023/03/22 06:15:10;;;;;;;17.40;15.10;;;9.70;99.90;;;;;;5056241;28;20992;-67
2023/03/22 06:17:38;;;;;;;21.80;13.73;;;9.70;99.90;;;;;;5056681;28;20451;-66
2023/03/22 06:20:10;;;;;;;21.60;14.77;;;9.70;99.90;;;;;;5056910;28;20574;-67
2023/03/22 06:22:37;;;;;;;19.47;14.37;;;9.70;99.90;;;;;;5056885;28;20543;-67
2023/03/22 06:25:05;;;;;;;19.27;14.60;;;9.80;99.90;;;;;;5056322;28;20465;-67
2023/03/22 06:27:32;;;;;;;29.60;15.90;;;9.70;99.90;;;;;;5056378;28;20987;-67
2023/03/22 06:30:00;;;;;;;20.80;15.10;;;9.70;99.90;;;;;;5056756;28;20547;-67
2023/03/22 06:32:27;;;;;;;19.57;14.20;;;9.80;99.90;;;;;;5056595;28;20470;-67
2023/03/22 06:34:55;;;;;;;22.13;15.00;;;9.80;99.90;;;;;;5056505;28;20459;-67
2023/03/22 06:37:23;;;;;;;16.70;12.73;;;9.80;99.90;;;;;;5056207;28;20554;-67
2023/03/22 06:39:51;;;;;;;19.53;14.10;;;9.90;99.90;;;;;;5056701;28;20469;-67
2023/03/22 06:42:18;;;;;;;18.80;14.40;;;9.90;99.90;;;;;;5056510;28;20460;-67
2023/03/22 06:44:45;;;;;;;19.63;13.77;;;9.90;99.90;;;;;;5056233;28;20926;-66
2023/03/22 06:47:12;;;;;;;21.97;15.27;;;9.90;99.90;;;;;;5056646;28;20852;-66
2023/03/22 06:49:39;;;;;;;21.80;14.67;;;10.00;99.90;;;;;;5056152;28;20924;-67
2023/03/22 06:52:07;;;;;;;17.37;13.07;;;10.00;99.90;;;;;;5056373;28;20455;-66
2023/03/22 06:54:34;;;;;;;17.93;14.03;;;10.00;99.90;;;;;;5056193;28;20465;-65
2023/03/22 06:57:01;;;;;;;16.93;12.90;;;10.00;99.90;;;;;;5056197;28;20466;-66
2023/03/22 06:59:28;;;;;;;19.63;14.27;;;10.00;99.90;;;;;;5056176;28;20451;-66
2023/03/22 07:01:55;;;;;;;17.73;13.90;;;10.10;99.90;;;;;;5056208;28;20465;-65
2023/03/22 07:04:22;;;;;;;18.53;15.03;;;10.20;99.90;;;;;;5056359;28;20455;-67
2023/03/22 07:06:49;;;;;;;23.07;14.80;;;10.20;99.90;;;;;;5055059;28;20830;-67
2023/03/22 07:09:18;;;;;;;18.80;14.00;;;10.20;99.90;;;;;;5055315;28;20510;-66
2023/03/22 07:11:44;;;;;;;18.40;13.90;;;10.30;99.90;;;;;;5055415;28;20462;-66
2023/03/22 07:14:11;;;;;;;17.80;13.27;;;10.30;99.90;;;;;;5055629;28;20459;-66
2023/03/22 07:16:38;;;;;;;16.20;13.20;;;10.30;99.90;;;;;;5055730;28;20462;-66
2023/03/22 07:19:05;;;;;;;18.40;13.07;;;10.30;99.90;;;;;;5056092;28;20451;-68
2023/03/22 07:21:32;;;;;;;19.40;14.07;;;10.40;99.90;;;;;;5056406;28;20459;-66
2023/03/22 07:23:59;;;;;;;19.27;13.80;;;10.40;99.90;;;;;;5055593;28;20465;-67
2023/03/22 07:26:29;;;;;;;17.03;12.80;;;10.40;99.90;;;;;;5055699;28;20559;-68
2023/03/22 07:28:56;;;;;;;19.63;14.13;;;10.50;99.90;;;;;;5056172;28;20494;-67
2023/03/22 07:31:23;;;;;;;20.63;12.87;;;10.60;99.90;;;;;;5055255;28;20459;-67
2023/03/22 07:33:50;;;;;;;18.47;13.47;;;10.60;99.90;;;;;;5056013;28;20455;-67
2023/03/22 07:36:22;;;;;;;16.00;13.07;;;10.70;99.90;;;;;;5054756;28;20509;-66
2023/03/22 07:38:49;;;;;;;18.03;13.77;;;10.70;99.90;;;;;;5055301;28;20497;-66
2023/03/22 07:41:16;;;;;;;20.97;14.13;;;10.60;99.90;;;;;;5054851;28;20605;-67
2023/03/22 07:43:45;;;;;;;16.97;13.90;;;10.70;99.90;;;;;;5054829;28;20541;-67
2023/03/22 07:46:12;;;;;;;19.50;12.83;;;10.60;99.90;;;;;;5055286;28;20854;-66
2023/03/22 07:48:39;;;;;;;18.47;14.80;;;10.70;99.90;;;;;;5055123;28;20569;-67
2023/03/22 07:51:06;;;;;;;22.47;13.80;;;10.70;99.90;;;;;;5054940;28;20758;-66
2023/03/22 07:53:33;;;;;;;18.93;14.10;;;10.80;99.90;;;;;;5054753;28;20551;-66
2023/03/22 07:56:00;;;;;;;16.87;12.97;;;10.80;99.90;;;;;;5054717;28;20455;-67
2023/03/22 07:58:27;;;;;;;15.63;12.67;;;10.70;99.90;;;;;;5055554;28;20512;-67
2023/03/22 08:00:55;;;;;;;17.80;13.40;;;10.80;99.90;;;;;;5055142;28;20838;-65
2023/03/22 08:03:22;;;;;;;16.33;13.30;;;10.80;99.90;;;;;;5054243;28;20457;-66
2023/03/22 08:05:50;;;;;;;16.90;13.80;;;10.90;99.90;;;;;;5054525;28;20554;-66
2023/03/22 08:08:17;;;;;;;20.40;14.10;;;11.00;99.90;;;;;;5054507;28;20578;-67
2023/03/22 08:10:49;;;;;;;15.90;12.40;;;11.10;99.90;;;;;;5054821;28;20528;-67
2023/03/22 08:13:15;;;;;;;16.43;12.80;;;11.20;99.90;;;;;;5054372;28;20440;-66
2023/03/22 08:15:43;;;;;;;18.37;14.60;;;11.20;99.90;;;;;;5054800;28;20483;-67
2023/03/22 08:18:11;;;;;;;16.47;12.93;;;11.40;99.90;;;;;;5054648;28;20455;-62
2023/03/22 08:20:38;;;;;;;16.27;13.83;;;11.40;99.90;;;;;;5054635;28;20470;-63
2023/03/22 08:23:06;;;;;;;22.53;14.07;;;11.50;99.90;;;;;;5054440;28;20465;-63
2023/03/22 08:25:34;;;;;;;19.67;13.63;;;11.60;99.90;;;;;;5054613;28;20558;-63
2023/03/22 08:28:00;;;;;;;19.07;12.93;;;11.70;99.90;;;;;;5054480;28;20454;-63
2023/03/22 08:30:27;;;;;;;32.20;20.40;;;11.80;99.90;;;;;;5054363;28;20484;-63
2023/03/22 08:32:54;;;;;;;21.10;12.73;;;11.80;99.90;;;;;;5054089;28;20455;-64
2023/03/22 08:35:23;;;;;;;19.43;14.07;;;11.80;99.90;;;;;;5054531;28;20520;-63
2023/03/22 08:37:56;;;;;;;15.87;12.90;;;11.80;99.90;;;;;;5054515;28;20464;-63
2023/03/22 08:40:23;;;;;;;16.67;12.67;;;11.90;99.90;;;;;;5054203;28;20785;-63
2023/03/22 08:42:50;;;;;;;16.03;12.77;;;11.90;99.90;;;;;;5054576;28;20459;-64
2023/03/22 08:45:17;;;;;;;14.60;12.13;;;11.90;99.90;;;;;;5054251;28;20542;-63
2023/03/22 08:47:44;;;;;;;16.57;11.90;;;12.00;99.90;;;;;;5054412;28;20455;-62
2023/03/22 08:50:12;;;;;;;16.23;11.53;;;11.90;99.90;;;;;;5054233;28;20479;-63
2023/03/22 08:52:40;;;;;;;16.40;11.87;;;12.00;99.90;;;;;;5054098;28;20467;-62
2023/03/22 08:55:09;;;;;;;14.40;11.97;;;12.10;99.90;;;;;;5054261;28;20550;-63
2023/03/22 08:57:36;;;;;;;16.33;11.30;;;12.10;99.90;;;;;;5054470;28;20542;-61
2023/03/22 09:00:06;;;;;;;14.43;10.33;;;12.20;99.90;;;;;;5054629;28;20573;-62
2023/03/22 09:02:32;;;;;;;18.37;12.87;;;12.30;99.90;;;;;;5054790;28;20463;-62
2023/03/22 09:05:00;;;;;;;14.03;11.67;;;12.30;99.90;;;;;;5054964;28;20459;-63
2023/03/22 09:07:27;;;;;;;14.60;11.80;;;12.40;99.90;;;;;;5055054;28;20471;-62
2023/03/22 09:09:56;;;;;;;18.40;12.07;;;12.40;99.90;;;;;;5054824;28;20479;-63
2023/03/22 09:12:23;;;;;;;12.67;10.70;;;12.50;99.90;;;;;;5055013;28;20465;-63
2023/03/22 09:14:50;;;;;;;18.13;11.50;;;12.60;99.90;;;;;;5054385;28;20486;-63
2023/03/22 09:17:17;;;;;;;14.33;10.47;;;12.70;99.90;;;;;;5054266;28;20459;-63
2023/03/22 09:19:46;;;;;;;18.60;12.40;;;12.80;99.90;;;;;;5054049;28;20451;-63
2023/03/22 09:22:13;;;;;;;12.40;10.23;;;12.90;99.90;;;;;;5054297;28;20465;-63
2023/03/22 09:24:40;;;;;;;12.63;11.20;;;13.00;99.90;;;;;;5053921;28;20455;-62
2023/03/22 09:27:08;;;;;;;15.37;10.77;;;13.00;99.90;;;;;;5054259;28;20455;-64
2023/03/22 09:29:35;;;;;;;15.27;11.47;;;13.10;99.90;;;;;;5054048;28;20562;-62
2023/03/22 09:32:02;;;;;;;14.00;10.53;;;13.20;99.90;;;;;;5057476;28;20939;-62
2023/03/22 09:34:29;;;;;;;15.80;10.70;;;13.20;99.90;;;;;;5057859;28;20537;-62
2023/03/22 09:36:57;;;;;;;16.13;10.70;;;13.40;99.90;;;;;;5057617;28;20487;-60
2023/03/22 09:39:24;;;;;;;13.30;11.17;;;13.50;99.90;;;;;;5057468;28;20455;-63
2023/03/22 09:41:54;;;;;;;15.50;11.47;;;13.60;99.90;;;;;;5057277;28;20465;-61
2023/03/22 09:44:28;;;;;;;11.07;9.87;;;13.70;99.90;;;;;;5057001;28;20958;-63
2023/03/22 09:46:58;;;;;;;12.83;10.63;;;13.80;99.90;;;;;;5056945;28;20527;-62
2023/03/22 09:49:29;;;;;;;12.73;10.03;;;13.90;99.90;;;;;;5057201;28;20570;-62
2023/03/22 09:51:56;;;;;;;13.60;10.30;;;14.00;99.90;;;;;;5056989;28;20443;-62
2023/03/22 09:54:31;;;;;;;13.30;9.97;;;13.90;99.90;;;;;;5056883;28;20455;-63
2023/03/22 09:57:02;;;;;;;12.90;11.10;;;13.90;99.90;;;;;;5056950;28;20439;-63
2023/03/22 09:59:38;;;;;;;12.40;10.20;;;14.00;99.90;;;;;;5056919;28;20451;-62
2023/03/22 10:02:22;;;;;;;14.60;9.77;;;14.00;99.90;;;;;;5056635;28;20884;-60
2023/03/22 10:04:59;;;;;;;17.60;10.07;;;14.10;99.90;;;;;;5056849;28;20492;-63
2023/03/22 10:07:32;;;;;;;12.87;10.40;;;14.20;99.90;;;;;;5057335;28;20440;-63
2023/03/22 10:10:07;;;;;;;11.23;9.30;;;14.30;99.90;;;;;;5058040;28;20474;-63
2023/03/22 10:12:40;;;;;;;12.50;9.93;;;14.40;99.90;;;;;;5058337;28;20532;-63
2023/03/22 10:15:15;;;;;;;10.87;9.30;;;14.60;99.90;;;;;;5056731;28;20589;-63
2023/03/22 10:17:45;;;;;;;11.10;9.83;;;14.80;99.90;;;;;;5057101;28;20823;-62
2023/03/22 10:20:23;;;;;;;9.33;8.43;;;14.90;99.90;;;;;;5057131;28;20522;-63
2023/03/22 10:22:52;;;;;;;10.43;8.37;;;15.00;99.90;;;;;;5056959;28;20454;-63
2023/03/22 10:25:22;;;;;;;11.90;8.80;;;15.00;99.90;;;;;;5057102;28;20954;-63
2023/03/22 10:27:51;;;;;;;11.33;8.23;;;15.00;99.90;;;;;;5056479;28;20543;-63
2023/03/22 10:30:23;;;;;;;9.47;8.50;;;14.90;99.90;;;;;;5056720;28;20804;-64
2023/03/22 10:32:55;;;;;;;10.43;8.80;;;15.00;99.90;;;;;;5056580;28;20495;-63
2023/03/22 10:35:23;;;;;;;12.93;9.70;;;15.10;99.90;;;;;;5056215;28;20477;-62
2023/03/22 10:37:51;;;;;;;8.50;7.60;;;15.30;99.90;;;;;;5056045;28;21003;-62
2023/03/22 10:40:20;;;;;;;10.63;8.40;;;15.30;99.90;;;;;;5056104;28;20734;-61
2023/03/22 10:42:54;;;;;;;11.40;9.10;;;15.50;99.90;;;;;;5055991;28;20802;-62
2023/03/22 10:45:24;;;;;;;9.43;7.80;;;15.60;99.90;;;;;;5056035;28;20551;-63
2023/03/22 10:47:58;;;;;;;18.30;10.13;;;15.60;99.90;;;;;;5056002;28;20546;-61
2023/03/22 10:50:29;;;;;;;11.90;8.70;;;15.60;99.90;;;;;;5055758;28;20463;-63
2023/03/22 10:53:01;;;;;;;10.40;7.57;;;15.60;99.90;;;;;;5055673;28;20459;-63
2023/03/22 10:55:29;;;;;;;16.17;8.83;;;15.60;99.90;;;;;;5055596;28;20535;-63
2023/03/22 10:58:02;;;;;;;8.40;7.50;;;15.60;99.90;;;;;;5055792;28;20455;-64
2023/03/22 11:00:30;;;;;;;7.30;6.50;;;15.60;99.90;;;;;;5056009;28;20860;-62
2023/03/22 11:03:00;;;;;;;8.43;7.27;;;15.70;99.90;;;;;;5055735;28;20463;-61
2023/03/22 11:05:29;;;;;;;7.10;6.00;;;15.70;99.90;;;;;;5055792;28;20473;-61
2023/03/22 11:07:57;;;;;;;12.80;6.40;;;15.70;99.90;;;;;;5056380;28;20466;-67
2023/03/22 11:10:27;;;;;;;8.20;6.00;;;15.70;99.90;;;;;;5056874;28;20487;-65
2023/03/22 11:12:56;;;;;;;8.33;6.23;;;15.70;99.90;;;;;;5056862;28;20455;-66
2023/03/22 11:15:30;;;;;;;6.90;6.20;;;15.70;99.90;;;;;;5056765;28;20479;-67
2023/03/22 11:18:04;;;;;;;7.23;5.97;;;15.70;99.90;;;;;;5056811;28;20439;-66
2023/03/22 11:20:33;;;;;;;7.93;6.23;;;15.70;99.90;;;;;;5056815;28;20436;-66
2023/03/22 11:23:02;;;;;;;7.13;5.53;;;15.80;99.90;;;;;;5056737;28;20466;-67
2023/03/22 11:25:31;;;;;;;10.90;5.83;;;15.80;99.90;;;;;;5056358;28;20502;-67
2023/03/22 11:28:08;;;;;;;6.03;5.43;;;15.90;99.90;;;;;;5056716;28;20486;-66
2023/03/22 11:30:37;;;;;;;9.83;5.97;;;16.00;99.90;;;;;;5057071;28;20961;-66
2023/03/22 11:33:17;;;;;;;5.87;5.10;;;16.00;99.90;;;;;;5057533;28;20465;-66
2023/03/22 11:35:45;;;;;;;6.90;5.27;;;15.90;99.90;;;;;;5057386;28;20493;-66
2023/03/22 11:38:24;;;;;;;6.47;5.87;;;15.90;99.90;;;;;;5056872;28;20926;-65
2023/03/22 11:40:56;;;;;;;8.60;6.23;;;15.90;99.90;;;;;;5057301;28;20439;-67
2023/03/22 11:43:24;;;;;;;6.30;4.90;;;16.10;99.90;;;;;;5057790;28;20748;-66
2023/03/22 11:45:56;;;;;;;6.03;4.73;;;16.10;99.90;;;;;;5056395;28;20470;-66
2023/03/22 11:48:25;;;;;;;6.57;5.27;;;16.30;99.90;;;;;;5056713;28;20450;-66
2023/03/22 11:50:54;;;;;;;5.30;4.70;;;16.40;99.90;;;;;;5056480;28;21008;-65
2023/03/22 11:53:24;;;;;;;5.07;4.67;;;16.60;99.90;;;;;;5056201;28;20542;-66
2023/03/22 11:55:54;;;;;;;4.70;4.10;;;16.70;99.90;;;;;;5056070;28;20860;-66
2023/03/22 11:58:30;;;;;;;6.27;4.70;;;17.00;99.90;;;;;;5056195;28;20466;-66
2023/03/22 12:01:01;;;;;;;6.40;4.47;;;17.00;99.90;;;;;;5056350;28;20486;-66
2023/03/22 12:03:33;;;;;;;7.13;4.63;;;17.10;99.90;;;;;;5057503;28;20454;-64
2023/03/22 12:06:04;;;;;;;5.50;4.27;;;17.60;99.90;;;;;;5055681;28;20904;-66
2023/03/22 12:08:39;;;;;;;7.37;4.60;;;18.30;99.90;;;;;;5055021;28;20450;-67
2023/03/22 12:11:10;;;;;;;5.20;4.67;;;19.00;99.90;;;;;;5055216;28;20466;-65
2023/03/22 12:13:45;;;;;;;5.27;3.83;;;19.40;99.90;;;;;;5054586;28;20935;-67
2023/03/22 12:16:17;;;;;;;6.47;4.30;;;19.80;99.90;;;;;;5054248;28;20823;-67
2023/03/22 12:18:49;;;;;;;5.63;4.87;;;19.90;99.90;;;;;;5054356;28;20444;-68
2023/03/22 12:21:16;;;;;;;5.50;4.50;;;19.80;99.90;;;;;;5054760;28;20493;-67
2023/03/22 12:23:43;;;;;;;5.07;4.23;;;19.50;99.90;;;;;;5055480;28;20649;-68
2023/03/22 12:26:16;;;;;;;8.50;5.37;;;19.60;99.90;;;;;;5055468;28;21001;-67
2023/03/22 12:28:51;;;;;;;6.97;4.47;;;19.40;99.90;;;;;;5055191;28;20860;-67
2023/03/22 12:31:23;;;;;;;4.30;3.90;;;20.10;99.90;;;;;;5054060;28;20463;-66
2023/03/22 12:33:53;;;;;;;5.00;4.50;;;20.60;99.90;;;;;;5055157;28;20815;-66
2023/03/22 12:36:23;;;;;;;4.70;4.17;;;20.20;99.90;;;;;;5054691;28;20463;-66
2023/03/22 12:38:52;;;;;;;4.67;4.20;;;20.50;99.90;;;;;;5054437;28;20550;-67
2023/03/22 12:41:26;;;;;;;8.27;4.13;;;20.40;99.90;;;;;;5054373;28;20481;-66
2023/03/22 12:43:55;;;;;;;5.90;5.20;;;20.70;98.50;;;;;;5054902;28;20443;-65
2023/03/22 12:46:28;;;;;;;6.57;4.20;;;20.20;99.30;;;;;;5054616;28;20937;-67